createdAt,value
2019-03-03T00:01:13.645Z,9.90
2019-03-03T00:03:43.457Z,9.90
2019-03-03T00:06:13.286Z,10.00
2019-03-03T00:08:43.285Z,10.00
2019-03-03T00:11:13.222Z,10.00
2019-03-03T00:13:43.120Z,10.00
2019-03-03T00:16:13.029Z,10.00
2019-03-03T00:18:42.853Z,10.00
2019-03-03T00:21:14.387Z,10.00
2019-03-03T00:23:46.510Z,10.00
2019-03-03T00:26:16.360Z,10.00
2019-03-03T00:28:46.180Z,10.00
2019-03-03T00:31:16.674Z,10.00
2019-03-03T00:33:46.503Z,10.00
2019-03-03T00:36:16.627Z,10.00
2019-03-03T00:38:49.088Z,10.10
2019-03-03T00:41:23.517Z,10.10
2019-03-03T00:44:01.106Z,10.00
2019-03-03T00:46:47.741Z,10.00
2019-03-03T00:49:22.182Z,10.10
2019-03-03T00:52:10.073Z,10.10
2019-03-03T00:54:41.510Z,10.10
2019-03-03T00:57:16.657Z,10.10
2019-03-03T00:59:48.114Z,10.10
2019-03-03T01:02:19.533Z,10.20
2019-03-03T01:04:50.996Z,10.30
2019-03-03T01:07:34.689Z,10.20
2019-03-03T01:13:00.682Z,10.20
2019-03-03T01:15:35.354Z,10.20
2019-03-03T01:18:22.872Z,10.20
2019-03-03T01:21:00.358Z,10.20
2019-03-03T01:23:40.531Z,10.20
2019-03-03T01:26:10.388Z,10.30
2019-03-03T01:28:40.162Z,10.30
2019-03-03T01:31:11.012Z,10.30
2019-03-03T01:33:40.907Z,10.20
2019-03-03T01:36:11.647Z,10.20
2019-03-03T01:38:41.460Z,10.20
2019-03-03T01:41:11.257Z,10.20
2019-03-03T01:43:41.070Z,10.20
2019-03-03T01:46:10.841Z,10.30
2019-03-03T01:48:41.641Z,10.20
2019-03-03T01:51:13.182Z,10.30
2019-03-03T01:53:43.105Z,10.30
2019-03-03T01:56:12.901Z,10.30
2019-03-03T01:58:42.834Z,10.30
2019-03-03T02:01:12.601Z,10.30
2019-03-03T02:03:42.441Z,10.20
2019-03-03T02:06:12.377Z,10.20
2019-03-03T02:08:42.969Z,10.20
2019-03-03T02:11:13.850Z,10.20
2019-03-03T02:13:43.747Z,10.30
2019-03-03T02:16:13.585Z,10.20
2019-03-03T02:18:43.363Z,10.30
2019-03-03T02:21:13.210Z,10.30
2019-03-03T02:23:42.973Z,10.30
2019-03-03T02:26:12.801Z,10.30
2019-03-03T02:28:42.593Z,10.30
2019-03-03T02:31:12.415Z,10.30
2019-03-03T02:33:42.285Z,10.30
2019-03-03T02:36:12.212Z,10.30
2019-03-03T02:38:41.984Z,10.30
2019-03-03T02:41:12.551Z,10.30
2019-03-03T02:43:42.398Z,10.40
2019-03-03T02:46:12.366Z,10.40
2019-03-03T02:48:42.285Z,10.40
2019-03-03T02:51:12.806Z,10.40
2019-03-03T02:53:42.625Z,10.40
2019-03-03T02:56:12.455Z,10.40
2019-03-03T02:58:42.238Z,10.40
2019-03-03T03:01:22.746Z,10.40
2019-03-03T03:03:52.735Z,10.40
2019-03-03T03:06:24.199Z,10.40
2019-03-03T03:09:10.799Z,10.40
2019-03-03T03:11:49.702Z,10.40
2019-03-03T03:14:35.983Z,10.40
2019-03-03T03:17:07.424Z,10.50
2019-03-03T03:19:45.510Z,10.40
2019-03-03T03:22:16.914Z,10.50
2019-03-03T03:24:54.461Z,10.40
2019-03-03T03:27:29.030Z,10.40
2019-03-03T03:30:17.045Z,10.40
2019-03-03T03:32:54.283Z,10.40
2019-03-03T03:35:28.596Z,10.50
2019-03-03T03:38:05.705Z,10.40
2019-03-03T03:40:46.035Z,10.40
2019-03-03T03:43:35.775Z,10.40
2019-03-03T03:46:16.354Z,10.40
2019-03-03T03:49:05.114Z,10.40
2019-03-03T03:51:48.357Z,10.40
2019-03-03T03:54:35.068Z,10.40
2019-03-03T03:57:09.146Z,10.40
2019-03-03T03:59:40.667Z,10.40
2019-03-03T04:02:26.976Z,10.40
2019-03-03T04:04:58.785Z,10.40
2019-03-03T04:07:38.871Z,10.40
2019-03-03T04:10:26.671Z,10.40
2019-03-03T04:13:13.131Z,10.40
2019-03-03T04:15:44.522Z,10.40
2019-03-03T04:18:16.138Z,10.40
2019-03-03T04:20:53.442Z,10.40
2019-03-03T04:23:27.453Z,10.30
2019-03-03T04:26:14.912Z,10.30
2019-03-03T04:28:52.495Z,10.30
2019-03-03T04:31:29.906Z,10.30
2019-03-03T04:34:17.540Z,10.30
2019-03-03T04:37:00.973Z,10.30
2019-03-03T04:39:44.090Z,10.40
2019-03-03T04:42:24.660Z,10.30
2019-03-03T04:44:56.082Z,10.30
2019-03-03T04:47:39.505Z,10.30
2019-03-03T04:50:29.025Z,10.30
2019-03-03T04:53:00.616Z,10.30
2019-03-03T04:55:34.990Z,10.30
2019-03-03T04:58:22.806Z,10.30
2019-03-03T05:00:56.761Z,10.40
2019-03-03T05:03:45.936Z,10.30
2019-03-03T05:06:20.042Z,10.30
2019-03-03T05:09:00.947Z,10.40
2019-03-03T05:11:56.508Z,10.30
2019-03-03T05:14:28.022Z,10.40
2019-03-03T05:16:59.663Z,10.40
2019-03-03T05:19:29.470Z,10.30
2019-03-03T05:21:59.237Z,10.30
2019-03-03T05:24:34.209Z,10.30
2019-03-03T05:27:00.850Z,10.30
2019-03-03T05:29:30.666Z,10.30
2019-03-03T05:32:01.210Z,10.30
2019-03-03T05:34:31.031Z,10.30
2019-03-03T05:37:01.877Z,10.30
2019-03-03T05:39:31.650Z,10.30
2019-03-03T05:42:01.541Z,10.30
2019-03-03T05:44:31.392Z,10.30
2019-03-03T05:47:02.174Z,10.30
2019-03-03T05:49:31.941Z,10.30
2019-03-03T05:52:02.010Z,10.30
2019-03-03T05:54:31.817Z,10.30
2019-03-03T05:57:01.630Z,10.30
2019-03-03T05:59:31.468Z,10.30
2019-03-03T06:02:01.349Z,10.20
2019-03-03T06:04:31.125Z,10.30
2019-03-03T06:07:01.658Z,10.30
2019-03-03T06:09:31.762Z,10.30
2019-03-03T06:12:01.642Z,10.30
2019-03-03T06:14:31.650Z,10.30
2019-03-03T06:17:03.189Z,10.40
2019-03-03T06:19:32.984Z,10.40
2019-03-03T06:22:02.762Z,10.40
2019-03-03T06:24:32.732Z,10.40
2019-03-03T06:27:02.537Z,10.40
2019-03-03T06:29:32.304Z,10.50
2019-03-03T06:32:03.085Z,10.50
2019-03-03T06:34:32.902Z,10.50
2019-03-03T06:37:02.891Z,10.50
2019-03-03T06:39:32.694Z,10.50
2019-03-03T06:42:02.594Z,10.50
2019-03-03T06:44:32.403Z,10.50
2019-03-03T06:47:02.171Z,10.60
2019-03-03T06:49:32.053Z,10.60
2019-03-03T06:52:01.938Z,10.60
2019-03-03T06:54:31.830Z,10.60
2019-03-03T06:57:01.605Z,10.60
2019-03-03T06:59:31.635Z,10.70
2019-03-03T07:02:01.405Z,10.70
2019-03-03T07:04:31.224Z,10.80
2019-03-03T07:07:01.058Z,10.80
2019-03-03T07:09:30.829Z,10.80
2019-03-03T07:12:00.648Z,10.80
2019-03-03T07:14:30.693Z,10.90
2019-03-03T07:17:00.539Z,10.90
2019-03-03T07:19:30.311Z,11.00
2019-03-03T07:22:00.315Z,11.00
2019-03-03T07:24:30.087Z,11.10
2019-03-03T07:27:00.040Z,11.10
2019-03-03T07:29:30.134Z,11.10
2019-03-03T07:31:59.955Z,11.20
2019-03-03T07:34:30.490Z,11.20
2019-03-03T07:37:00.389Z,11.30
2019-03-03T07:39:30.209Z,11.20
2019-03-03T07:42:00.027Z,11.20
2019-03-03T07:44:29.942Z,11.30
2019-03-03T07:46:59.813Z,11.30
2019-03-03T07:49:29.628Z,11.30
2019-03-03T07:51:59.537Z,11.30
2019-03-03T07:54:29.386Z,11.40
2019-03-03T07:56:59.211Z,11.40
2019-03-03T07:59:28.985Z,11.40
2019-03-03T08:01:58.825Z,11.40
2019-03-03T08:04:28.588Z,11.40
2019-03-03T08:06:58.408Z,11.40
2019-03-03T08:09:28.397Z,11.40
2019-03-03T08:11:58.196Z,11.40
2019-03-03T08:14:28.089Z,11.40
2019-03-03T08:16:57.985Z,11.40
2019-03-03T08:19:28.067Z,11.40
2019-03-03T08:21:57.889Z,11.40
2019-03-03T08:24:27.797Z,11.50
2019-03-03T08:26:57.682Z,11.50
2019-03-03T08:29:27.585Z,11.50
2019-03-03T08:31:57.384Z,11.60
2019-03-03T08:34:27.153Z,11.60
2019-03-03T08:36:57.223Z,11.60
2019-03-03T08:39:27.074Z,11.60
2019-03-03T08:41:58.561Z,11.70
2019-03-03T08:44:30.175Z,11.70
2019-03-03T08:47:07.602Z,11.70
2019-03-03T08:49:41.905Z,11.70
2019-03-03T08:52:19.082Z,11.80
2019-03-03T08:55:07.608Z,11.80
2019-03-03T08:57:45.026Z,11.90
2019-03-03T09:00:20.004Z,11.90
2019-03-03T09:02:51.755Z,11.90
2019-03-03T09:05:29.258Z,11.80
2019-03-03T09:08:09.481Z,11.80
2019-03-03T09:10:52.980Z,11.80
2019-03-03T09:13:42.318Z,11.70
2019-03-03T09:16:20.419Z,11.70
2019-03-03T09:18:52.040Z,11.70
2019-03-03T09:21:23.573Z,11.70
2019-03-03T09:24:12.796Z,11.70
2019-03-03T09:26:49.941Z,11.70
2019-03-03T09:29:33.386Z,11.70
2019-03-03T09:32:13.817Z,11.70
2019-03-03T09:34:51.330Z,11.70
2019-03-03T09:37:25.753Z,11.80
2019-03-03T09:39:57.242Z,11.80
2019-03-03T09:42:37.626Z,11.80
2019-03-03T09:45:28.541Z,11.90
2019-03-03T09:48:05.534Z,11.90
2019-03-03T09:50:42.537Z,12.00
2019-03-03T09:53:19.854Z,12.00
2019-03-03T09:55:51.565Z,12.10
2019-03-03T09:58:38.881Z,12.10
2019-03-03T10:01:26.577Z,12.20
2019-03-03T10:04:04.186Z,12.20
2019-03-03T10:06:47.273Z,12.30
2019-03-03T10:09:19.282Z,12.30
2019-03-03T10:11:50.693Z,12.30
2019-03-03T10:14:25.087Z,12.30
2019-03-03T10:16:56.506Z,12.30
2019-03-03T10:19:30.738Z,12.40
2019-03-03T10:22:07.785Z,12.40
2019-03-03T10:24:48.922Z,12.50
2019-03-03T10:27:26.310Z,12.60
2019-03-03T10:30:09.714Z,12.60
2019-03-03T10:32:49.973Z,12.70
2019-03-03T10:35:33.581Z,12.70
2019-03-03T10:38:08.076Z,12.80
2019-03-03T10:40:39.546Z,12.80
2019-03-03T10:43:11.019Z,12.90
2019-03-03T10:45:51.098Z,12.90
2019-03-03T10:48:25.494Z,12.90
2019-03-03T10:51:05.785Z,12.80
2019-03-03T10:53:37.762Z,12.90
2019-03-03T10:56:09.231Z,12.80
2019-03-03T10:58:46.465Z,12.80
2019-03-03T11:01:29.601Z,12.80
2019-03-03T11:04:03.999Z,12.80
2019-03-03T11:06:41.418Z,12.80
2019-03-03T11:09:20.861Z,12.80
2019-03-03T11:11:58.197Z,12.80
2019-03-03T11:14:29.702Z,12.80
2019-03-03T11:17:10.273Z,12.80
2019-03-03T11:19:47.661Z,12.80
2019-03-03T11:22:22.611Z,12.90
2019-03-03T11:25:09.925Z,12.90
2019-03-03T11:27:47.029Z,12.90
2019-03-03T11:30:39.331Z,13.00
2019-03-03T11:33:26.513Z,13.00
2019-03-03T11:36:06.529Z,13.10
2019-03-03T11:38:40.930Z,13.10
2019-03-03T11:41:12.522Z,13.10
2019-03-03T11:43:46.646Z,13.10
2019-03-03T11:46:30.105Z,13.10
2019-03-03T11:49:13.177Z,13.20
2019-03-03T11:51:44.758Z,13.20
2019-03-03T11:54:16.225Z,13.20
2019-03-03T11:56:59.464Z,13.30
2019-03-03T11:59:30.909Z,13.30
2019-03-03T12:02:05.216Z,13.40
2019-03-03T12:04:52.627Z,13.40
2019-03-03T12:07:24.362Z,13.50
2019-03-03T12:10:13.709Z,13.50
2019-03-03T12:13:00.505Z,13.60
2019-03-03T12:15:41.037Z,13.70
2019-03-03T12:18:13.368Z,13.80
2019-03-03T12:20:50.504Z,13.90
2019-03-03T12:23:24.946Z,13.90
2019-03-03T12:25:59.355Z,14.00
2019-03-03T12:28:36.762Z,14.00
2019-03-03T12:31:08.284Z,14.00
2019-03-03T12:33:39.689Z,14.10
2019-03-03T12:36:14.125Z,14.10
2019-03-03T12:38:45.596Z,14.10
2019-03-03T12:41:33.365Z,14.10
2019-03-03T12:44:19.473Z,14.10
2019-03-03T12:46:50.893Z,14.20
2019-03-03T12:49:25.162Z,14.20
2019-03-03T12:52:05.789Z,14.20
2019-03-03T12:54:53.193Z,14.20
2019-03-03T12:57:36.385Z,14.20
2019-03-03T13:00:11.577Z,14.20
2019-03-03T13:02:58.970Z,14.20
2019-03-03T13:05:45.641Z,14.10
2019-03-03T13:08:33.483Z,14.20
2019-03-03T13:11:22.692Z,14.10
2019-03-03T13:14:02.992Z,14.10
2019-03-03T13:16:46.526Z,14.10
2019-03-03T13:19:18.277Z,14.10
2019-03-03T13:21:50.066Z,14.10
2019-03-03T13:24:30.082Z,14.10
2019-03-03T13:27:04.522Z,14.10
2019-03-03T13:29:52.443Z,14.20
2019-03-03T13:32:26.834Z,14.20
2019-03-03T13:35:03.938Z,14.20
2019-03-03T13:37:35.378Z,14.30
2019-03-03T13:40:18.377Z,14.30
2019-03-03T13:42:58.375Z,14.30
2019-03-03T13:45:30.660Z,14.30
2019-03-03T13:48:00.685Z,14.40
2019-03-03T13:50:30.601Z,14.40
2019-03-03T13:53:00.567Z,14.40
2019-03-03T13:55:31.433Z,14.40
2019-03-03T13:58:01.255Z,14.30
2019-03-03T14:00:31.166Z,14.40
2019-03-03T14:03:01.791Z,14.40
2019-03-03T14:05:31.742Z,14.40
2019-03-03T14:08:01.760Z,14.50
2019-03-03T14:10:32.202Z,14.50
2019-03-03T14:13:02.145Z,14.50
2019-03-03T14:15:32.047Z,14.50
2019-03-03T14:18:01.813Z,14.50
2019-03-03T14:20:31.655Z,14.60
2019-03-03T14:23:01.457Z,14.60
2019-03-03T14:25:31.320Z,14.60
2019-03-03T14:28:01.184Z,14.50
2019-03-03T14:30:31.030Z,14.60
2019-03-03T14:33:01.030Z,14.50
2019-03-03T14:35:30.922Z,14.50
2019-03-03T14:38:00.773Z,14.50
2019-03-03T14:40:30.725Z,14.50
2019-03-03T14:43:00.539Z,14.50
2019-03-03T14:45:30.323Z,14.50
2019-03-03T14:48:00.394Z,14.40
2019-03-03T14:50:30.165Z,14.40
2019-03-03T14:52:59.934Z,14.40
2019-03-03T14:55:29.853Z,14.30
2019-03-03T14:57:59.821Z,14.30
2019-03-03T15:00:32.387Z,14.30
2019-03-03T15:03:04.315Z,14.30
2019-03-03T15:05:34.153Z,14.20
2019-03-03T15:08:04.718Z,14.20
2019-03-03T15:10:34.590Z,14.20
2019-03-03T15:13:04.536Z,14.20
2019-03-03T15:15:37.481Z,14.20
2019-03-03T15:18:07.326Z,14.10
2019-03-03T15:20:37.357Z,14.10
2019-03-03T15:23:07.272Z,14.10
2019-03-03T15:25:37.341Z,14.10
2019-03-03T15:28:07.173Z,14.10
2019-03-03T15:30:36.994Z,14.10
2019-03-03T15:33:06.831Z,14.10
2019-03-03T15:35:36.594Z,14.10
2019-03-03T15:38:06.762Z,14.00
2019-03-03T15:40:36.585Z,14.00
2019-03-03T15:43:06.374Z,14.00
2019-03-03T15:45:36.233Z,13.90
2019-03-03T15:48:06.063Z,14.00
2019-03-03T15:50:36.418Z,14.00
2019-03-03T15:53:06.315Z,14.00
2019-03-03T15:55:36.418Z,14.00
2019-03-03T15:58:06.350Z,14.00
2019-03-03T16:00:38.833Z,14.10
2019-03-03T16:03:08.677Z,14.10
2019-03-03T16:05:38.586Z,14.00
2019-03-03T16:08:08.385Z,14.00
2019-03-03T16:10:38.220Z,14.00
2019-03-03T16:13:08.054Z,13.90
2019-03-03T16:15:37.997Z,13.90
2019-03-03T16:18:07.815Z,13.80
2019-03-03T16:20:37.654Z,13.80
2019-03-03T16:23:07.508Z,13.80
2019-03-03T16:25:37.418Z,13.70
2019-03-03T16:28:07.332Z,13.70
2019-03-03T16:30:37.292Z,13.70
2019-03-03T16:33:07.093Z,13.70
2019-03-03T16:35:36.981Z,13.70
2019-03-03T16:38:08.051Z,13.60
2019-03-03T16:40:39.891Z,13.60
2019-03-03T16:43:09.489Z,13.60
2019-03-03T16:45:39.326Z,13.60
2019-03-03T16:48:09.157Z,13.50
2019-03-03T16:50:39.038Z,13.50
2019-03-03T16:53:08.863Z,13.50
2019-03-03T16:55:38.774Z,13.50
2019-03-03T16:58:08.646Z,13.40
2019-03-03T17:00:38.789Z,13.40
2019-03-03T17:03:08.702Z,13.40
2019-03-03T17:05:38.513Z,13.40
2019-03-03T17:08:08.333Z,13.40
2019-03-03T17:10:38.309Z,13.40
2019-03-03T17:13:08.113Z,13.30
2019-03-03T17:15:37.886Z,13.40
2019-03-03T17:18:07.704Z,13.30
2019-03-03T17:20:38.352Z,13.30
2019-03-03T17:23:08.253Z,13.30
2019-03-03T17:25:38.071Z,13.30
2019-03-03T17:28:07.838Z,13.30
2019-03-03T17:30:37.652Z,13.30
2019-03-03T17:33:07.493Z,13.30
2019-03-03T17:35:37.325Z,13.30
2019-03-03T17:38:07.101Z,13.20
2019-03-03T17:40:36.884Z,13.30
2019-03-03T17:43:06.865Z,13.30
2019-03-03T17:45:36.693Z,13.20
2019-03-03T17:48:06.506Z,13.20
2019-03-03T17:50:36.277Z,13.20
2019-03-03T17:53:06.052Z,13.20
2019-03-03T17:55:36.020Z,13.20
2019-03-03T17:58:06.854Z,13.20
2019-03-03T18:00:38.486Z,13.20
2019-03-03T18:03:08.404Z,13.30
2019-03-03T18:05:38.365Z,13.20
2019-03-03T18:08:08.336Z,13.20
2019-03-03T18:10:38.230Z,13.20
2019-03-03T18:13:08.072Z,13.20
2019-03-03T18:15:37.900Z,13.20
2019-03-03T18:18:07.906Z,13.20
2019-03-03T18:20:37.785Z,13.20
2019-03-03T18:23:07.606Z,13.20
2019-03-03T18:25:37.374Z,13.10
2019-03-03T18:28:07.169Z,13.20
2019-03-03T18:30:36.961Z,13.10
2019-03-03T18:33:06.740Z,13.10
2019-03-03T18:35:36.578Z,13.10
2019-03-03T18:38:06.409Z,13.10
2019-03-03T18:40:36.187Z,13.10
2019-03-03T18:43:05.968Z,13.20
2019-03-03T18:45:35.940Z,13.10
2019-03-03T18:48:05.786Z,13.10
2019-03-03T18:50:35.561Z,13.10
2019-03-03T18:53:05.527Z,13.10
2019-03-03T18:55:35.338Z,13.00
2019-03-03T18:58:06.390Z,13.00
2019-03-03T19:00:36.417Z,13.00
2019-03-03T19:03:06.432Z,13.00
2019-03-03T19:05:36.249Z,13.00
2019-03-03T19:08:06.076Z,13.00
2019-03-03T19:10:38.061Z,13.00
2019-03-03T19:13:09.022Z,13.00
2019-03-03T19:15:38.849Z,13.00
2019-03-03T19:18:08.617Z,13.00
2019-03-03T19:20:40.146Z,13.00
2019-03-03T19:23:10.670Z,13.00
2019-03-03T19:25:40.566Z,13.00
2019-03-03T19:28:10.421Z,13.00
2019-03-03T19:30:40.277Z,13.00
2019-03-03T19:33:22.078Z,13.00
2019-03-03T19:35:51.856Z,13.00
2019-03-03T19:38:21.730Z,13.00
2019-03-03T19:40:51.654Z,13.00
2019-03-03T19:43:21.743Z,13.00
2019-03-03T19:45:54.979Z,13.00
2019-03-03T19:48:24.849Z,13.00
2019-03-03T19:50:54.623Z,13.00
2019-03-03T19:53:24.392Z,13.00
2019-03-03T19:55:54.197Z,13.00
2019-03-03T19:58:23.984Z,13.10
2019-03-03T20:00:53.822Z,13.00
2019-03-03T20:03:24.873Z,13.10
2019-03-03T20:05:54.669Z,13.00
2019-03-03T20:08:24.627Z,13.10
2019-03-03T20:10:54.543Z,13.00
2019-03-03T20:13:24.374Z,13.00
2019-03-03T20:15:54.357Z,13.00
2019-03-03T20:18:24.291Z,13.00
2019-03-03T20:20:54.843Z,13.00
2019-03-03T20:23:24.688Z,13.00
2019-03-03T20:25:54.453Z,13.00
2019-03-03T20:28:24.349Z,13.00
2019-03-03T20:30:55.041Z,13.00
2019-03-03T20:33:25.026Z,13.00
2019-03-03T20:35:55.626Z,13.00
2019-03-03T20:38:25.527Z,13.00
2019-03-03T20:40:55.301Z,13.00
2019-03-03T20:43:25.074Z,13.00
2019-03-03T20:45:55.002Z,13.00
2019-03-03T20:48:24.765Z,13.00
2019-03-03T20:50:54.543Z,13.00
2019-03-03T20:53:24.417Z,13.00
2019-03-03T20:55:54.193Z,13.00
2019-03-03T20:58:24.013Z,13.00
2019-03-03T21:00:53.839Z,13.00
2019-03-03T21:03:23.653Z,13.00
2019-03-03T21:05:53.643Z,13.00
2019-03-03T21:08:23.534Z,13.00
2019-03-03T21:10:53.678Z,13.00
2019-03-03T21:13:24.409Z,13.00
2019-03-03T21:15:54.181Z,12.90
2019-03-03T21:18:24.006Z,12.90
2019-03-03T21:20:53.890Z,12.90
2019-03-03T21:23:23.652Z,12.90
2019-03-03T21:25:53.755Z,12.80
2019-03-03T21:28:23.554Z,12.80
2019-03-03T21:30:53.450Z,12.90
2019-03-03T21:33:23.313Z,12.80
2019-03-03T21:35:53.324Z,12.80
2019-03-03T21:38:23.296Z,12.80
2019-03-03T21:40:53.133Z,12.80
2019-03-03T21:43:22.986Z,12.80
2019-03-03T21:45:52.753Z,12.80
2019-03-03T21:48:22.534Z,12.80
2019-03-03T21:50:52.528Z,12.80
2019-03-03T21:53:23.374Z,12.80
2019-03-03T21:55:53.275Z,12.80
2019-03-03T21:58:23.081Z,12.80
2019-03-03T22:00:52.853Z,12.80
2019-03-03T22:03:23.526Z,12.80
2019-03-03T22:05:53.530Z,12.80
2019-03-03T22:08:23.415Z,12.80
2019-03-03T22:10:53.497Z,12.80
2019-03-03T22:13:23.365Z,12.80
2019-03-03T22:15:53.898Z,12.80
2019-03-03T22:18:23.717Z,12.80
2019-03-03T22:20:53.618Z,12.80
2019-03-03T22:23:23.428Z,12.80
2019-03-03T22:25:53.206Z,12.80
2019-03-03T22:28:23.114Z,12.80
2019-03-03T22:30:53.046Z,12.80
2019-03-03T22:33:22.992Z,12.80
2019-03-03T22:35:53.048Z,12.80
2019-03-03T22:38:22.818Z,12.80
2019-03-03T22:40:52.595Z,12.80
2019-03-03T22:43:22.413Z,12.80
2019-03-03T22:45:52.236Z,12.80
2019-03-03T22:48:22.586Z,12.80
2019-03-03T22:50:52.454Z,12.90
2019-03-03T22:53:22.334Z,12.90
2019-03-03T22:55:52.206Z,12.90
2019-03-03T22:58:23.721Z,12.90
2019-03-03T23:01:05.166Z,12.90
2019-03-03T23:03:53.116Z,12.90
2019-03-03T23:06:37.722Z,12.90
2019-03-03T23:09:13.474Z,12.90
2019-03-03T23:11:58.472Z,12.90
2019-03-03T23:14:40.153Z,12.90
2019-03-03T23:17:27.918Z,12.90
2019-03-03T23:20:03.683Z,12.90
2019-03-03T23:22:41.756Z,12.90
2019-03-03T23:25:36.772Z,12.90
2019-03-03T23:28:07.469Z,12.90
2019-03-03T23:30:37.374Z,12.90
2019-03-03T23:33:07.269Z,12.90
2019-03-03T23:35:37.046Z,12.90
2019-03-03T23:38:06.824Z,12.90
2019-03-03T23:40:36.803Z,12.90
2019-03-03T23:43:06.704Z,12.90
2019-03-03T23:45:37.454Z,12.90
2019-03-03T23:48:08.388Z,12.90
2019-03-03T23:50:38.401Z,12.90
2019-03-03T23:53:08.200Z,12.80
2019-03-03T23:55:38.126Z,12.80
2019-03-03T23:58:07.918Z,12.80
